sensor_id;sensor_type;location;lat;lon;timestamp;P1;durP1;ratioP1;P2;durP2;ratioP2
18048;SDS011;9149;47.002;8.604;2022-08-19T00:02:17;2.83;;;2.00;;
18048;SDS011;9149;47.002;8.604;2022-08-19T00:04:45;3.20;;;1.98;;
18048;SDS011;9149;47.002;8.604;2022-08-19T00:07:15;2.67;;;1.75;;
18048;SDS011;9149;47.002;8.604;2022-08-19T00:09:44;3.28;;;2.08;;
18048;SDS011;9149;47.002;8.604;2022-08-19T00:12:11;3.85;;;1.92;;
18048;SDS011;9149;47.002;8.604;2022-08-19T00:14:40;3.65;;;1.95;;
18048;SDS011;9149;47.002;8.604;2022-08-19T00:17:08;7.32;;;1.85;;
18048;SDS011;9149;47.002;8.604;2022-08-19T00:19:36;3.30;;;1.90;;
18048;SDS011;9149;47.002;8.604;2022-08-19T00:22:04;4.30;;;1.90;;
18048;SDS011;9149;47.002;8.604;2022-08-19T00:24:32;3.58;;;2.00;;
18048;SDS011;9149;47.002;8.604;2022-08-19T00:27:02;4.60;;;2.45;;
18048;SDS011;9149;47.002;8.604;2022-08-19T00:29:50;4.10;;;2.30;;
18048;SDS011;9149;47.002;8.604;2022-08-19T00:32:18;2.40;;;1.80;;
18048;SDS011;9149;47.002;8.604;2022-08-19T00:34:46;2.40;;;1.73;;
18048;SDS011;9149;47.002;8.604;2022-08-19T00:37:14;1.95;;;1.58;;
18048;SDS011;9149;47.002;8.604;2022-08-19T00:39:42;6.00;;;1.83;;
18048;SDS011;9149;47.002;8.604;2022-08-19T00:42:11;6.95;;;2.03;;
18048;SDS011;9149;47.002;8.604;2022-08-19T00:44:41;2.78;;;1.60;;
18048;SDS011;9149;47.002;8.604;2022-08-19T00:47:09;6.10;;;1.85;;
18048;SDS011;9149;47.002;8.604;2022-08-19T00:49:43;2.67;;;1.90;;
18048;SDS011;9149;47.002;8.604;2022-08-19T00:52:15;2.38;;;1.48;;
18048;SDS011;9149;47.002;8.604;2022-08-19T00:54:43;3.13;;;1.73;;
18048;SDS011;9149;47.002;8.604;2022-08-19T00:57:22;3.25;;;2.05;;
18048;SDS011;9149;47.002;8.604;2022-08-19T00:59:52;2.83;;;1.88;;
18048;SDS011;9149;47.002;8.604;2022-08-19T01:02:29;3.55;;;1.90;;
18048;SDS011;9149;47.002;8.604;2022-08-19T01:04:57;3.53;;;2.00;;
18048;SDS011;9149;47.002;8.604;2022-08-19T01:07:26;4.78;;;1.92;;
18048;SDS011;9149;47.002;8.604;2022-08-19T01:10:01;3.05;;;2.00;;
18048;SDS011;9149;47.002;8.604;2022-08-19T01:12:30;4.75;;;1.85;;
18048;SDS011;9149;47.002;8.604;2022-08-19T01:14:58;3.65;;;2.20;;
18048;SDS011;9149;47.002;8.604;2022-08-19T01:17:26;3.45;;;2.05;;
18048;SDS011;9149;47.002;8.604;2022-08-19T01:19:54;3.67;;;1.98;;
18048;SDS011;9149;47.002;8.604;2022-08-19T01:22:28;2.67;;;2.00;;
18048;SDS011;9149;47.002;8.604;2022-08-19T01:24:59;6.75;;;2.30;;
18048;SDS011;9149;47.002;8.604;2022-08-19T01:27:28;3.90;;;2.58;;
18048;SDS011;9149;47.002;8.604;2022-08-19T01:30:10;2.95;;;2.28;;
18048;SDS011;9149;47.002;8.604;2022-08-19T01:32:38;3.28;;;2.28;;
18048;SDS011;9149;47.002;8.604;2022-08-19T01:35:24;4.22;;;2.53;;
18048;SDS011;9149;47.002;8.604;2022-08-19T01:37:55;4.22;;;2.30;;
18048;SDS011;9149;47.002;8.604;2022-08-19T01:40:24;2.60;;;2.00;;
18048;SDS011;9149;47.002;8.604;2022-08-19T01:42:53;5.22;;;2.28;;
18048;SDS011;9149;47.002;8.604;2022-08-19T01:45:21;6.30;;;2.13;;
18048;SDS011;9149;47.002;8.604;2022-08-19T01:47:49;3.75;;;2.35;;
18048;SDS011;9149;47.002;8.604;2022-08-19T01:50:28;4.40;;;2.00;;
18048;SDS011;9149;47.002;8.604;2022-08-19T01:52:57;2.78;;;1.77;;
18048;SDS011;9149;47.002;8.604;2022-08-19T01:55:32;2.53;;;1.80;;
18048;SDS011;9149;47.002;8.604;2022-08-19T01:58:07;2.75;;;1.65;;
18048;SDS011;9149;47.002;8.604;2022-08-19T02:00:35;2.97;;;1.77;;
18048;SDS011;9149;47.002;8.604;2022-08-19T02:03:03;3.03;;;1.75;;
18048;SDS011;9149;47.002;8.604;2022-08-19T02:05:32;5.63;;;1.38;;
18048;SDS011;9149;47.002;8.604;2022-08-19T02:08:01;2.22;;;1.60;;
18048;SDS011;9149;47.002;8.604;2022-08-19T02:10:30;2.45;;;1.60;;
18048;SDS011;9149;47.002;8.604;2022-08-19T02:12:58;3.63;;;1.70;;
18048;SDS011;9149;47.002;8.604;2022-08-19T02:15:26;4.05;;;1.90;;
18048;SDS011;9149;47.002;8.604;2022-08-19T02:17:53;9.40;;;2.60;;
18048;SDS011;9149;47.002;8.604;2022-08-19T02:20:21;2.75;;;1.95;;
18048;SDS011;9149;47.002;8.604;2022-08-19T02:22:50;3.53;;;2.00;;
18048;SDS011;9149;47.002;8.604;2022-08-19T02:25:20;5.75;;;2.35;;
18048;SDS011;9149;47.002;8.604;2022-08-19T02:27:48;3.25;;;2.30;;
18048;SDS011;9149;47.002;8.604;2022-08-19T02:30:16;4.22;;;2.28;;
18048;SDS011;9149;47.002;8.604;2022-08-19T02:32:44;3.15;;;2.13;;
18048;SDS011;9149;47.002;8.604;2022-08-19T02:35:12;3.35;;;2.00;;
18048;SDS011;9149;47.002;8.604;2022-08-19T02:37:40;5.60;;;2.50;;
18048;SDS011;9149;47.002;8.604;2022-08-19T02:40:18;9.07;;;2.20;;
18048;SDS011;9149;47.002;8.604;2022-08-19T02:42:47;3.35;;;1.75;;
18048;SDS011;9149;47.002;8.604;2022-08-19T02:45:15;6.25;;;2.40;;
18048;SDS011;9149;47.002;8.604;2022-08-19T02:47:42;3.67;;;2.08;;
18048;SDS011;9149;47.002;8.604;2022-08-19T02:50:10;2.83;;;1.90;;
18048;SDS011;9149;47.002;8.604;2022-08-19T02:52:56;3.70;;;1.90;;
18048;SDS011;9149;47.002;8.604;2022-08-19T02:55:24;4.30;;;2.55;;
18048;SDS011;9149;47.002;8.604;2022-08-19T02:57:52;7.05;;;2.22;;
18048;SDS011;9149;47.002;8.604;2022-08-19T03:00:21;4.30;;;1.95;;
18048;SDS011;9149;47.002;8.604;2022-08-19T03:02:50;4.40;;;2.65;;
18048;SDS011;9149;47.002;8.604;2022-08-19T03:05:18;7.10;;;1.95;;
18048;SDS011;9149;47.002;8.604;2022-08-19T03:08:07;9.57;;;2.60;;
18048;SDS011;9149;47.002;8.604;2022-08-19T03:10:39;4.07;;;2.10;;
18048;SDS011;9149;47.002;8.604;2022-08-19T03:13:09;5.03;;;2.22;;
18048;SDS011;9149;47.002;8.604;2022-08-19T03:15:39;4.10;;;2.60;;
18048;SDS011;9149;47.002;8.604;2022-08-19T03:18:06;3.85;;;2.42;;
18048;SDS011;9149;47.002;8.604;2022-08-19T03:20:39;4.05;;;2.38;;
18048;SDS011;9149;47.002;8.604;2022-08-19T03:23:07;7.93;;;2.80;;
18048;SDS011;9149;47.002;8.604;2022-08-19T03:25:36;5.72;;;2.45;;
18048;SDS011;9149;47.002;8.604;2022-08-19T03:28:04;4.35;;;2.65;;
18048;SDS011;9149;47.002;8.604;2022-08-19T03:30:33;4.65;;;2.58;;
18048;SDS011;9149;47.002;8.604;2022-08-19T03:33:01;4.88;;;2.70;;
18048;SDS011;9149;47.002;8.604;2022-08-19T03:35:31;6.22;;;2.75;;
18048;SDS011;9149;47.002;8.604;2022-08-19T03:37:58;4.45;;;2.33;;
18048;SDS011;9149;47.002;8.604;2022-08-19T03:40:26;8.45;;;2.50;;
18048;SDS011;9149;47.002;8.604;2022-08-19T03:42:56;5.35;;;2.40;;
18048;SDS011;9149;47.002;8.604;2022-08-19T03:45:24;8.02;;;2.95;;
18048;SDS011;9149;47.002;8.604;2022-08-19T03:47:55;5.65;;;2.60;;
18048;SDS011;9149;47.002;8.604;2022-08-19T03:50:23;4.05;;;2.20;;
18048;SDS011;9149;47.002;8.604;2022-08-19T03:52:51;3.88;;;2.47;;
18048;SDS011;9149;47.002;8.604;2022-08-19T03:55:19;3.90;;;2.40;;
18048;SDS011;9149;47.002;8.604;2022-08-19T03:57:47;3.17;;;2.40;;
18048;SDS011;9149;47.002;8.604;2022-08-19T04:00:15;3.28;;;1.83;;
18048;SDS011;9149;47.002;8.604;2022-08-19T04:02:43;5.35;;;2.40;;
18048;SDS011;9149;47.002;8.604;2022-08-19T04:05:27;3.65;;;2.25;;
18048;SDS011;9149;47.002;8.604;2022-08-19T04:07:55;2.70;;;1.90;;
18048;SDS011;9149;47.002;8.604;2022-08-19T04:10:25;6.22;;;1.60;;
18048;SDS011;9149;47.002;8.604;2022-08-19T04:12:52;2.00;;;1.30;;
18048;SDS011;9149;47.002;8.604;2022-08-19T04:15:20;6.28;;;1.30;;
18048;SDS011;9149;47.002;8.604;2022-08-19T04:17:48;2.58;;;1.60;;
18048;SDS011;9149;47.002;8.604;2022-08-19T04:20:16;3.95;;;1.73;;
18048;SDS011;9149;47.002;8.604;2022-08-19T04:22:45;2.75;;;1.45;;
18048;SDS011;9149;47.002;8.604;2022-08-19T04:25:12;2.53;;;1.60;;
18048;SDS011;9149;47.002;8.604;2022-08-19T04:27:40;3.08;;;1.50;;
18048;SDS011;9149;47.002;8.604;2022-08-19T04:30:09;5.45;;;1.83;;
18048;SDS011;9149;47.002;8.604;2022-08-19T04:32:37;3.03;;;1.77;;
18048;SDS011;9149;47.002;8.604;2022-08-19T04:35:05;4.03;;;1.80;;
18048;SDS011;9149;47.002;8.604;2022-08-19T04:37:46;6.50;;;2.08;;
18048;SDS011;9149;47.002;8.604;2022-08-19T04:40:14;3.55;;;2.17;;
18048;SDS011;9149;47.002;8.604;2022-08-19T04:42:51;2.55;;;1.67;;
18048;SDS011;9149;47.002;8.604;2022-08-19T04:45:20;5.03;;;1.83;;
18048;SDS011;9149;47.002;8.604;2022-08-19T04:47:48;3.40;;;1.60;;
18048;SDS011;9149;47.002;8.604;2022-08-19T04:50:39;3.10;;;1.90;;
18048;SDS011;9149;47.002;8.604;2022-08-19T04:53:08;2.85;;;1.80;;
18048;SDS011;9149;47.002;8.604;2022-08-19T04:55:38;2.03;;;1.50;;
18048;SDS011;9149;47.002;8.604;2022-08-19T04:58:06;2.20;;;1.50;;
18048;SDS011;9149;47.002;8.604;2022-08-19T05:00:34;2.65;;;1.40;;
18048;SDS011;9149;47.002;8.604;2022-08-19T05:03:04;3.40;;;2.08;;
18048;SDS011;9149;47.002;8.604;2022-08-19T05:05:33;2.63;;;1.77;;
18048;SDS011;9149;47.002;8.604;2022-08-19T05:08:12;3.88;;;2.03;;
18048;SDS011;9149;47.002;8.604;2022-08-19T05:10:40;3.22;;;2.00;;
18048;SDS011;9149;47.002;8.604;2022-08-19T05:13:08;2.33;;;1.60;;
18048;SDS011;9149;47.002;8.604;2022-08-19T05:15:37;1.98;;;1.17;;
18048;SDS011;9149;47.002;8.604;2022-08-19T05:18:05;1.90;;;1.13;;
18048;SDS011;9149;47.002;8.604;2022-08-19T05:20:43;1.67;;;1.27;;
18048;SDS011;9149;47.002;8.604;2022-08-19T05:23:21;1.00;;;0.90;;
18048;SDS011;9149;47.002;8.604;2022-08-19T05:25:49;3.30;;;1.20;;
18048;SDS011;9149;47.002;8.604;2022-08-19T05:28:18;1.30;;;0.93;;
18048;SDS011;9149;47.002;8.604;2022-08-19T05:30:46;4.60;;;0.93;;
18048;SDS011;9149;47.002;8.604;2022-08-19T05:33:14;3.13;;;0.80;;
18048;SDS011;9149;47.002;8.604;2022-08-19T05:35:42;2.67;;;1.10;;
18048;SDS011;9149;47.002;8.604;2022-08-19T05:38:10;2.50;;;1.38;;
18048;SDS011;9149;47.002;8.604;2022-08-19T05:40:40;2.50;;;1.88;;
18048;SDS011;9149;47.002;8.604;2022-08-19T05:43:08;2.45;;;1.33;;
18048;SDS011;9149;47.002;8.604;2022-08-19T05:45:38;2.15;;;1.10;;
18048;SDS011;9149;47.002;8.604;2022-08-19T05:48:06;1.60;;;1.00;;
18048;SDS011;9149;47.002;8.604;2022-08-19T05:50:35;1.52;;;1.30;;
18048;SDS011;9149;47.002;8.604;2022-08-19T05:53:03;2.50;;;1.20;;
18048;SDS011;9149;47.002;8.604;2022-08-19T05:55:30;2.35;;;1.50;;
18048;SDS011;9149;47.002;8.604;2022-08-19T05:57:59;6.25;;;2.50;;
18048;SDS011;9149;47.002;8.604;2022-08-19T06:00:28;6.00;;;3.30;;
18048;SDS011;9149;47.002;8.604;2022-08-19T06:02:56;7.60;;;4.15;;
18048;SDS011;9149;47.002;8.604;2022-08-19T06:05:35;7.65;;;4.25;;
18048;SDS011;9149;47.002;8.604;2022-08-19T06:08:17;9.13;;;4.97;;
18048;SDS011;9149;47.002;8.604;2022-08-19T06:10:45;11.52;;;4.20;;
18048;SDS011;9149;47.002;8.604;2022-08-19T06:13:14;8.43;;;4.30;;
18048;SDS011;9149;47.002;8.604;2022-08-19T06:15:42;10.02;;;4.63;;
18048;SDS011;9149;47.002;8.604;2022-08-19T06:18:13;8.32;;;4.32;;
18048;SDS011;9149;47.002;8.604;2022-08-19T06:20:41;10.93;;;4.65;;
18048;SDS011;9149;47.002;8.604;2022-08-19T06:23:21;9.68;;;4.40;;
18048;SDS011;9149;47.002;8.604;2022-08-19T06:25:50;10.93;;;4.40;;
18048;SDS011;9149;47.002;8.604;2022-08-19T06:28:19;17.98;;;4.65;;
18048;SDS011;9149;47.002;8.604;2022-08-19T06:30:47;9.05;;;4.43;;
18048;SDS011;9149;47.002;8.604;2022-08-19T06:33:15;9.00;;;4.68;;
18048;SDS011;9149;47.002;8.604;2022-08-19T06:35:44;9.07;;;4.57;;
18048;SDS011;9149;47.002;8.604;2022-08-19T06:38:11;8.52;;;4.18;;
18048;SDS011;9149;47.002;8.604;2022-08-19T06:40:39;9.20;;;5.03;;
18048;SDS011;9149;47.002;8.604;2022-08-19T06:43:07;10.05;;;4.95;;
18048;SDS011;9149;47.002;8.604;2022-08-19T06:45:37;8.82;;;4.93;;
18048;SDS011;9149;47.002;8.604;2022-08-19T06:48:05;11.27;;;5.28;;
18048;SDS011;9149;47.002;8.604;2022-08-19T06:50:33;12.85;;;5.88;;
18048;SDS011;9149;47.002;8.604;2022-08-19T06:53:05;12.20;;;6.57;;
18048;SDS011;9149;47.002;8.604;2022-08-19T06:55:33;20.90;;;6.78;;
18048;SDS011;9149;47.002;8.604;2022-08-19T06:58:02;11.35;;;5.95;;
18048;SDS011;9149;47.002;8.604;2022-08-19T07:00:30;11.50;;;5.90;;
18048;SDS011;9149;47.002;8.604;2022-08-19T07:02:59;11.85;;;6.20;;
18048;SDS011;9149;47.002;8.604;2022-08-19T07:05:37;11.07;;;5.60;;
18048;SDS011;9149;47.002;8.604;2022-08-19T07:08:05;12.40;;;5.18;;
18048;SDS011;9149;47.002;8.604;2022-08-19T07:10:33;11.80;;;5.60;;
18048;SDS011;9149;47.002;8.604;2022-08-19T07:13:08;13.02;;;5.65;;
18048;SDS011;9149;47.002;8.604;2022-08-19T07:15:35;10.15;;;5.38;;
18048;SDS011;9149;47.002;8.604;2022-08-19T07:18:06;12.43;;;5.95;;
18048;SDS011;9149;47.002;8.604;2022-08-19T07:20:37;8.43;;;5.05;;
18048;SDS011;9149;47.002;8.604;2022-08-19T07:23:07;11.38;;;5.47;;
18048;SDS011;9149;47.002;8.604;2022-08-19T07:25:37;10.32;;;5.50;;
18048;SDS011;9149;47.002;8.604;2022-08-19T07:28:06;12.43;;;5.20;;
18048;SDS011;9149;47.002;8.604;2022-08-19T07:30:50;10.82;;;5.68;;
18048;SDS011;9149;47.002;8.604;2022-08-19T07:33:19;10.48;;;5.40;;
18048;SDS011;9149;47.002;8.604;2022-08-19T07:35:47;9.35;;;5.43;;
18048;SDS011;9149;47.002;8.604;2022-08-19T07:38:16;9.55;;;5.15;;
18048;SDS011;9149;47.002;8.604;2022-08-19T07:40:44;12.40;;;5.40;;
18048;SDS011;9149;47.002;8.604;2022-08-19T07:43:12;9.25;;;5.05;;
18048;SDS011;9149;47.002;8.604;2022-08-19T07:45:50;12.40;;;5.68;;
18048;SDS011;9149;47.002;8.604;2022-08-19T07:48:17;11.30;;;5.60;;
18048;SDS011;9149;47.002;8.604;2022-08-19T07:50:46;11.55;;;5.55;;
18048;SDS011;9149;47.002;8.604;2022-08-19T07:53:14;12.85;;;5.68;;
18048;SDS011;9149;47.002;8.604;2022-08-19T07:55:42;8.75;;;5.03;;
18048;SDS011;9149;47.002;8.604;2022-08-19T07:58:11;11.93;;;5.00;;
18048;SDS011;9149;47.002;8.604;2022-08-19T08:00:56;10.90;;;5.85;;
18048;SDS011;9149;47.002;8.604;2022-08-19T08:03:24;9.75;;;5.68;;
18048;SDS011;9149;47.002;8.604;2022-08-19T08:06:14;8.32;;;5.00;;
18048;SDS011;9149;47.002;8.604;2022-08-19T08:08:54;9.93;;;5.32;;
18048;SDS011;9149;47.002;8.604;2022-08-19T08:11:37;14.52;;;5.43;;
18048;SDS011;9149;47.002;8.604;2022-08-19T08:14:04;11.68;;;5.78;;
18048;SDS011;9149;47.002;8.604;2022-08-19T08:16:52;9.88;;;5.63;;
18048;SDS011;9149;47.002;8.604;2022-08-19T08:19:21;10.45;;;5.97;;
18048;SDS011;9149;47.002;8.604;2022-08-19T08:21:53;8.15;;;4.90;;
18048;SDS011;9149;47.002;8.604;2022-08-19T08:24:21;8.65;;;5.20;;
18048;SDS011;9149;47.002;8.604;2022-08-19T08:26:54;10.05;;;5.65;;
18048;SDS011;9149;47.002;8.604;2022-08-19T08:29:23;10.63;;;5.70;;
18048;SDS011;9149;47.002;8.604;2022-08-19T08:32:00;9.10;;;5.00;;
18048;SDS011;9149;47.002;8.604;2022-08-19T08:34:27;9.07;;;5.03;;
18048;SDS011;9149;47.002;8.604;2022-08-19T08:36:56;11.18;;;4.97;;
18048;SDS011;9149;47.002;8.604;2022-08-19T08:39:24;8.35;;;5.05;;
18048;SDS011;9149;47.002;8.604;2022-08-19T08:41:53;9.50;;;4.40;;
18048;SDS011;9149;47.002;8.604;2022-08-19T08:44:27;8.90;;;4.35;;
18048;SDS011;9149;47.002;8.604;2022-08-19T08:46:56;7.78;;;4.20;;
18048;SDS011;9149;47.002;8.604;2022-08-19T08:49:28;7.82;;;4.10;;
18048;SDS011;9149;47.002;8.604;2022-08-19T08:52:00;8.27;;;4.68;;
18048;SDS011;9149;47.002;8.604;2022-08-19T08:54:30;9.25;;;4.93;;
18048;SDS011;9149;47.002;8.604;2022-08-19T08:57:00;9.10;;;4.28;;
18048;SDS011;9149;47.002;8.604;2022-08-19T08:59:30;11.00;;;4.75;;
18048;SDS011;9149;47.002;8.604;2022-08-19T09:01:59;7.65;;;4.35;;
18048;SDS011;9149;47.002;8.604;2022-08-19T09:04:27;9.65;;;5.35;;
18048;SDS011;9149;47.002;8.604;2022-08-19T09:06:58;13.15;;;4.82;;
18048;SDS011;9149;47.002;8.604;2022-08-19T09:09:52;7.13;;;4.68;;
18048;SDS011;9149;47.002;8.604;2022-08-19T09:12:25;9.70;;;4.25;;
18048;SDS011;9149;47.002;8.604;2022-08-19T09:14:55;6.13;;;3.92;;
18048;SDS011;9149;47.002;8.604;2022-08-19T09:17:25;9.80;;;4.45;;
18048;SDS011;9149;47.002;8.604;2022-08-19T09:19:58;13.13;;;4.47;;
18048;SDS011;9149;47.002;8.604;2022-08-19T09:22:27;9.45;;;4.55;;
18048;SDS011;9149;47.002;8.604;2022-08-19T09:24:56;6.80;;;4.32;;
18048;SDS011;9149;47.002;8.604;2022-08-19T09:27:25;11.88;;;3.83;;
18048;SDS011;9149;47.002;8.604;2022-08-19T09:30:11;5.47;;;3.67;;
18048;SDS011;9149;47.002;8.604;2022-08-19T09:32:39;6.25;;;4.03;;
18048;SDS011;9149;47.002;8.604;2022-08-19T09:35:09;9.52;;;4.38;;
18048;SDS011;9149;47.002;8.604;2022-08-19T09:37:37;8.07;;;4.05;;
18048;SDS011;9149;47.002;8.604;2022-08-19T09:40:07;8.52;;;4.15;;
18048;SDS011;9149;47.002;8.604;2022-08-19T09:42:37;8.40;;;4.20;;
18048;SDS011;9149;47.002;8.604;2022-08-19T09:45:17;8.27;;;4.22;;
18048;SDS011;9149;47.002;8.604;2022-08-19T09:47:46;9.13;;;4.78;;
18048;SDS011;9149;47.002;8.604;2022-08-19T09:50:15;7.63;;;4.47;;
18048;SDS011;9149;47.002;8.604;2022-08-19T09:52:44;10.20;;;5.10;;
18048;SDS011;9149;47.002;8.604;2022-08-19T09:55:22;10.00;;;4.78;;
18048;SDS011;9149;47.002;8.604;2022-08-19T09:57:58;7.80;;;4.72;;
18048;SDS011;9149;47.002;8.604;2022-08-19T10:00:25;9.15;;;4.65;;
18048;SDS011;9149;47.002;8.604;2022-08-19T10:02:53;6.53;;;4.60;;
18048;SDS011;9149;47.002;8.604;2022-08-19T10:05:22;10.23;;;4.40;;
18048;SDS011;9149;47.002;8.604;2022-08-19T10:08:07;10.68;;;4.95;;
18048;SDS011;9149;47.002;8.604;2022-08-19T10:10:41;8.35;;;4.63;;
18048;SDS011;9149;47.002;8.604;2022-08-19T10:13:13;11.27;;;4.95;;
18048;SDS011;9149;47.002;8.604;2022-08-19T10:15:41;8.63;;;4.55;;
18048;SDS011;9149;47.002;8.604;2022-08-19T10:18:13;11.55;;;4.60;;
18048;SDS011;9149;47.002;8.604;2022-08-19T10:20:43;6.63;;;4.03;;
18048;SDS011;9149;47.002;8.604;2022-08-19T10:23:17;7.45;;;4.60;;
18048;SDS011;9149;47.002;8.604;2022-08-19T10:25:46;8.85;;;4.07;;
18048;SDS011;9149;47.002;8.604;2022-08-19T10:28:14;7.10;;;4.18;;
18048;SDS011;9149;47.002;8.604;2022-08-19T10:30:45;7.22;;;3.95;;
18048;SDS011;9149;47.002;8.604;2022-08-19T10:33:13;6.50;;;3.97;;
18048;SDS011;9149;47.002;8.604;2022-08-19T10:36:01;6.43;;;3.78;;
18048;SDS011;9149;47.002;8.604;2022-08-19T10:38:29;9.00;;;3.88;;
18048;SDS011;9149;47.002;8.604;2022-08-19T10:41:05;10.13;;;4.10;;
18048;SDS011;9149;47.002;8.604;2022-08-19T10:43:33;7.78;;;4.38;;
18048;SDS011;9149;47.002;8.604;2022-08-19T10:46:04;7.10;;;4.35;;
18048;SDS011;9149;47.002;8.604;2022-08-19T10:48:39;11.45;;;4.15;;
18048;SDS011;9149;47.002;8.604;2022-08-19T10:51:07;7.40;;;4.20;;
18048;SDS011;9149;47.002;8.604;2022-08-19T10:53:48;9.57;;;4.30;;
18048;SDS011;9149;47.002;8.604;2022-08-19T10:56:17;7.70;;;4.55;;
18048;SDS011;9149;47.002;8.604;2022-08-19T10:58:55;9.48;;;4.38;;
18048;SDS011;9149;47.002;8.604;2022-08-19T11:01:24;10.30;;;4.75;;
18048;SDS011;9149;47.002;8.604;2022-08-19T11:03:52;11.68;;;4.95;;
18048;SDS011;9149;47.002;8.604;2022-08-19T11:06:20;8.18;;;4.25;;
18048;SDS011;9149;47.002;8.604;2022-08-19T11:08:47;8.65;;;4.22;;
18048;SDS011;9149;47.002;8.604;2022-08-19T11:11:15;11.75;;;4.72;;
18048;SDS011;9149;47.002;8.604;2022-08-19T11:13:44;6.57;;;4.07;;
18048;SDS011;9149;47.002;8.604;2022-08-19T11:16:14;6.75;;;4.05;;
18048;SDS011;9149;47.002;8.604;2022-08-19T11:18:43;9.85;;;4.60;;
18048;SDS011;9149;47.002;8.604;2022-08-19T11:21:12;8.30;;;4.45;;
18048;SDS011;9149;47.002;8.604;2022-08-19T11:23:40;7.70;;;4.22;;
18048;SDS011;9149;47.002;8.604;2022-08-19T11:26:08;9.07;;;4.35;;
18048;SDS011;9149;47.002;8.604;2022-08-19T11:28:35;11.27;;;4.70;;
18048;SDS011;9149;47.002;8.604;2022-08-19T11:31:05;8.27;;;4.63;;
18048;SDS011;9149;47.002;8.604;2022-08-19T11:33:36;8.70;;;4.47;;
18048;SDS011;9149;47.002;8.604;2022-08-19T11:36:04;6.15;;;3.70;;
18048;SDS011;9149;47.002;8.604;2022-08-19T11:38:31;6.53;;;3.88;;
18048;SDS011;9149;47.002;8.604;2022-08-19T11:41:00;9.40;;;3.47;;
18048;SDS011;9149;47.002;8.604;2022-08-19T11:43:29;6.55;;;4.03;;
18048;SDS011;9149;47.002;8.604;2022-08-19T11:46:05;6.75;;;3.75;;
18048;SDS011;9149;47.002;8.604;2022-08-19T11:48:34;6.28;;;4.10;;
18048;SDS011;9149;47.002;8.604;2022-08-19T11:51:03;6.55;;;4.00;;
18048;SDS011;9149;47.002;8.604;2022-08-19T11:53:32;6.82;;;3.95;;
18048;SDS011;9149;47.002;8.604;2022-08-19T11:56:00;6.78;;;3.95;;
18048;SDS011;9149;47.002;8.604;2022-08-19T11:58:47;8.88;;;3.90;;
18048;SDS011;9149;47.002;8.604;2022-08-19T12:01:17;5.07;;;3.30;;
18048;SDS011;9149;47.002;8.604;2022-08-19T12:03:46;7.13;;;3.35;;
18048;SDS011;9149;47.002;8.604;2022-08-19T12:06:15;6.07;;;3.60;;
18048;SDS011;9149;47.002;8.604;2022-08-19T12:08:43;6.00;;;3.55;;
18048;SDS011;9149;47.002;8.604;2022-08-19T12:11:12;6.32;;;3.83;;
18048;SDS011;9149;47.002;8.604;2022-08-19T12:13:40;6.97;;;4.13;;
18048;SDS011;9149;47.002;8.604;2022-08-19T12:16:08;7.93;;;3.97;;
18048;SDS011;9149;47.002;8.604;2022-08-19T12:18:39;6.97;;;3.72;;
18048;SDS011;9149;47.002;8.604;2022-08-19T12:21:09;6.72;;;3.92;;
18048;SDS011;9149;47.002;8.604;2022-08-19T12:23:40;5.80;;;3.42;;
18048;SDS011;9149;47.002;8.604;2022-08-19T12:26:08;6.88;;;4.13;;
18048;SDS011;9149;47.002;8.604;2022-08-19T12:28:37;6.63;;;4.00;;
18048;SDS011;9149;47.002;8.604;2022-08-19T12:31:05;6.20;;;4.00;;
18048;SDS011;9149;47.002;8.604;2022-08-19T12:33:33;5.45;;;3.45;;
18048;SDS011;9149;47.002;8.604;2022-08-19T12:36:02;9.32;;;3.90;;
18048;SDS011;9149;47.002;8.604;2022-08-19T12:38:31;10.20;;;3.72;;
18048;SDS011;9149;47.002;8.604;2022-08-19T12:41:01;7.57;;;3.80;;
18048;SDS011;9149;47.002;8.604;2022-08-19T12:43:32;8.07;;;4.07;;
18048;SDS011;9149;47.002;8.604;2022-08-19T12:46:01;6.32;;;3.67;;
18048;SDS011;9149;47.002;8.604;2022-08-19T12:48:29;6.45;;;3.55;;
18048;SDS011;9149;47.002;8.604;2022-08-19T12:51:00;6.35;;;3.58;;
18048;SDS011;9149;47.002;8.604;2022-08-19T12:53:29;7.13;;;3.78;;
18048;SDS011;9149;47.002;8.604;2022-08-19T12:55:57;6.10;;;3.28;;
18048;SDS011;9149;47.002;8.604;2022-08-19T12:58:26;5.75;;;3.55;;
18048;SDS011;9149;47.002;8.604;2022-08-19T13:00:55;7.95;;;3.72;;
18048;SDS011;9149;47.002;8.604;2022-08-19T13:03:22;5.18;;;3.20;;
18048;SDS011;9149;47.002;8.604;2022-08-19T13:05:55;6.18;;;3.50;;
18048;SDS011;9149;47.002;8.604;2022-08-19T13:08:23;4.90;;;3.25;;
18048;SDS011;9149;47.002;8.604;2022-08-19T13:10:52;4.88;;;3.25;;
18048;SDS011;9149;47.002;8.604;2022-08-19T13:13:20;5.72;;;3.10;;
18048;SDS011;9149;47.002;8.604;2022-08-19T13:15:48;9.20;;;3.42;;
18048;SDS011;9149;47.002;8.604;2022-08-19T13:18:15;6.55;;;3.47;;
18048;SDS011;9149;47.002;8.604;2022-08-19T13:20:43;5.88;;;3.67;;
18048;SDS011;9149;47.002;8.604;2022-08-19T13:23:18;5.63;;;3.30;;
18048;SDS011;9149;47.002;8.604;2022-08-19T13:25:56;6.50;;;3.33;;
18048;SDS011;9149;47.002;8.604;2022-08-19T13:28:24;5.97;;;3.25;;
18048;SDS011;9149;47.002;8.604;2022-08-19T13:30:54;6.07;;;3.38;;
18048;SDS011;9149;47.002;8.604;2022-08-19T13:33:31;8.43;;;3.40;;
18048;SDS011;9149;47.002;8.604;2022-08-19T13:36:00;7.32;;;3.40;;
18048;SDS011;9149;47.002;8.604;2022-08-19T13:38:28;8.82;;;3.72;;
18048;SDS011;9149;47.002;8.604;2022-08-19T13:41:03;5.97;;;3.42;;
18048;SDS011;9149;47.002;8.604;2022-08-19T13:43:37;6.30;;;3.58;;
18048;SDS011;9149;47.002;8.604;2022-08-19T13:46:08;5.60;;;3.28;;
18048;SDS011;9149;47.002;8.604;2022-08-19T13:48:36;6.53;;;4.05;;
18048;SDS011;9149;47.002;8.604;2022-08-19T13:51:04;7.20;;;4.05;;
18048;SDS011;9149;47.002;8.604;2022-08-19T13:53:33;10.02;;;4.13;;
18048;SDS011;9149;47.002;8.604;2022-08-19T13:56:05;6.93;;;4.35;;
18048;SDS011;9149;47.002;8.604;2022-08-19T13:58:33;8.05;;;4.22;;
18048;SDS011;9149;47.002;8.604;2022-08-19T14:01:02;6.85;;;4.18;;
18048;SDS011;9149;47.002;8.604;2022-08-19T14:03:30;5.75;;;3.70;;
18048;SDS011;9149;47.002;8.604;2022-08-19T14:05:58;6.88;;;3.75;;
18048;SDS011;9149;47.002;8.604;2022-08-19T14:08:26;6.18;;;3.53;;
18048;SDS011;9149;47.002;8.604;2022-08-19T14:10:54;5.97;;;3.67;;
18048;SDS011;9149;47.002;8.604;2022-08-19T14:13:24;6.70;;;3.60;;
18048;SDS011;9149;47.002;8.604;2022-08-19T14:15:52;9.63;;;4.45;;
18048;SDS011;9149;47.002;8.604;2022-08-19T14:18:20;6.15;;;3.60;;
18048;SDS011;9149;47.002;8.604;2022-08-19T14:20:51;8.25;;;4.10;;
18048;SDS011;9149;47.002;8.604;2022-08-19T14:23:19;7.97;;;3.97;;
18048;SDS011;9149;47.002;8.604;2022-08-19T14:25:47;6.82;;;4.18;;
18048;SDS011;9149;47.002;8.604;2022-08-19T14:28:14;6.85;;;3.88;;
18048;SDS011;9149;47.002;8.604;2022-08-19T14:30:44;7.93;;;4.45;;
18048;SDS011;9149;47.002;8.604;2022-08-19T14:33:12;7.30;;;4.53;;
18048;SDS011;9149;47.002;8.604;2022-08-19T14:35:40;10.15;;;4.22;;
18048;SDS011;9149;47.002;8.604;2022-08-19T14:38:14;9.32;;;4.43;;
18048;SDS011;9149;47.002;8.604;2022-08-19T14:40:43;8.80;;;5.07;;
18048;SDS011;9149;47.002;8.604;2022-08-19T14:43:11;7.35;;;4.53;;
18048;SDS011;9149;47.002;8.604;2022-08-19T14:45:41;6.90;;;4.25;;
18048;SDS011;9149;47.002;8.604;2022-08-19T14:48:10;8.90;;;3.95;;
18048;SDS011;9149;47.002;8.604;2022-08-19T14:50:46;6.93;;;4.20;;
18048;SDS011;9149;47.002;8.604;2022-08-19T14:53:13;8.32;;;4.35;;
18048;SDS011;9149;47.002;8.604;2022-08-19T14:55:44;7.60;;;3.90;;
18048;SDS011;9149;47.002;8.604;2022-08-19T14:58:12;8.57;;;4.57;;
18048;SDS011;9149;47.002;8.604;2022-08-19T15:00:56;7.80;;;4.43;;
18048;SDS011;9149;47.002;8.604;2022-08-19T15:03:25;9.07;;;4.85;;
18048;SDS011;9149;47.002;8.604;2022-08-19T15:05:53;8.38;;;4.47;;
18048;SDS011;9149;47.002;8.604;2022-08-19T15:08:21;7.47;;;4.15;;
18048;SDS011;9149;47.002;8.604;2022-08-19T15:10:51;8.00;;;4.53;;
18048;SDS011;9149;47.002;8.604;2022-08-19T15:13:19;7.03;;;4.10;;
18048;SDS011;9149;47.002;8.604;2022-08-19T15:15:47;8.00;;;4.45;;
18048;SDS011;9149;47.002;8.604;2022-08-19T15:18:15;8.27;;;4.30;;
18048;SDS011;9149;47.002;8.604;2022-08-19T15:20:44;8.85;;;4.82;;